Terminal Aerodrome Forecast
Issued by NWS

Home | Current Version | Previous Version | Text Only | Print | Product List | Glossary Off
Versions: 1 2 3 4 5 6 7 8 9 10 11 12 13 14 15 16 17 18 19 20

000
FTUS43 KICT 160500
TAFCNU
TAF
KCNU 160522Z 1606/1706 04007KT P6SM SCT025 OVC060
      TEMPO 1608/1612 BKN025
     FM161200 07005KT P6SM OVC020
     FM161600 12006KT P6SM BKN035=

USA.gov is the U.S. government's official web portal to all federal, state and local government web resources and services.